Time;durP1;ratioP1;P1;durP2;ratioP2;P2;SDS_P1;SDS_P2;PMS_P1;PMS_P2;Temp;Humidity;BMP_temperature;BMP_pressure;BME280_temperature;BME280_humidity;BME280_pressure;Samples;Min_cycle;Max_cycle;Signal;HPM_P1;HPM_P2
2024/01/05 00:01:47;;;;;;;13.20;5.22;;;5.40;99.90;;;;;;5049219;28;20225;-75
2024/01/05 00:04:13;;;;;;;11.18;4.50;;;5.40;99.90;;;;;;5063227;28;20040;-75
2024/01/05 00:06:38;;;;;;;16.27;4.32;;;5.30;99.90;;;;;;5051894;28;20021;-75
2024/01/05 00:09:04;;;;;;;10.07;4.05;;;5.30;99.90;;;;;;5059609;28;20025;-76
2024/01/05 00:11:30;;;;;;;12.63;4.15;;;5.30;99.90;;;;;;5043728;28;20037;-74
2024/01/05 00:13:57;;;;;;;11.80;4.22;;;5.30;99.90;;;;;;5044058;28;20366;-74
2024/01/05 00:16:23;;;;;;;8.90;4.07;;;5.40;99.90;;;;;;5043988;28;20025;-72
2024/01/05 00:18:50;;;;;;;11.52;4.53;;;5.30;99.90;;;;;;5043386;28;20029;-75
2024/01/05 00:21:23;;;;;;;11.43;4.05;;;5.30;99.90;;;;;;5047896;28;20035;-76
2024/01/05 00:23:50;;;;;;;10.55;4.05;;;5.30;99.90;;;;;;5053628;28;20402;-74
2024/01/05 00:26:16;;;;;;;8.95;3.25;;;5.20;99.90;;;;;;5054408;28;20189;-73
2024/01/05 00:28:42;;;;;;;9.65;3.70;;;5.30;99.90;;;;;;5048260;28;20314;-73
2024/01/05 00:31:12;;;;;;;8.48;3.63;;;5.30;99.90;;;;;;5043722;28;20049;-73
2024/01/05 00:33:39;;;;;;;13.38;4.28;;;5.20;99.90;;;;;;5043173;28;20034;-73
2024/01/05 00:36:06;;;;;;;10.15;3.80;;;5.30;99.90;;;;;;5043480;28;20021;-73
2024/01/05 00:38:31;;;;;;;9.32;3.83;;;5.20;99.90;;;;;;5057355;28;20033;-74
2024/01/05 00:40:57;;;;;;;11.02;3.80;;;5.30;99.90;;;;;;5043031;28;20036;-73
2024/01/05 00:43:23;;;;;;;10.38;3.40;;;5.20;99.90;;;;;;5042458;28;20022;-73
2024/01/05 00:45:48;;;;;;;8.45;3.50;;;5.30;99.90;;;;;;5057898;28;20047;-72
2024/01/05 00:48:14;;;;;;;10.00;3.10;;;5.30;99.90;;;;;;5043647;28;20304;-74
2024/01/05 00:50:40;;;;;;;9.25;3.63;;;5.20;99.90;;;;;;5042737;28;20037;-75
2024/01/05 00:53:06;;;;;;;9.43;3.25;;;5.20;99.90;;;;;;5042996;28;20092;-74
2024/01/05 00:55:32;;;;;;;7.82;3.35;;;5.20;99.90;;;;;;5042445;28;20029;-73
2024/01/05 00:57:58;;;;;;;9.35;3.70;;;5.20;99.90;;;;;;5042839;28;20017;-74
2024/01/05 01:00:24;;;;;;;6.22;2.85;;;5.20;99.90;;;;;;5043253;28;20033;-73
2024/01/05 01:02:51;;;;;;;10.23;3.10;;;5.20;99.90;;;;;;5056366;28;20025;-73
2024/01/05 01:05:17;;;;;;;7.85;3.30;;;5.20;99.90;;;;;;5062859;28;20215;-73
2024/01/05 01:07:43;;;;;;;10.55;3.65;;;5.20;99.90;;;;;;5061205;28;20278;-74
2024/01/05 01:10:09;;;;;;;11.60;4.15;;;5.20;99.90;;;;;;5062732;28;20056;-73
2024/01/05 01:12:35;;;;;;;8.18;3.53;;;5.20;99.90;;;;;;5053434;28;20025;-73
2024/01/05 01:15:01;;;;;;;8.73;3.42;;;5.20;99.90;;;;;;5041519;28;20033;-73
2024/01/05 01:17:29;;;;;;;8.07;3.33;;;5.20;99.90;;;;;;5042608;28;20205;-72
2024/01/05 01:19:55;;;;;;;7.78;3.08;;;5.20;99.90;;;;;;5041644;28;20185;-74
2024/01/05 01:22:21;;;;;;;9.25;3.65;;;5.20;99.90;;;;;;5052445;28;20338;-74
2024/01/05 01:24:47;;;;;;;7.18;3.05;;;5.20;99.90;;;;;;5062082;28;20033;-73
2024/01/05 01:27:14;;;;;;;10.27;3.10;;;5.20;99.90;;;;;;5062874;28;20020;-74
2024/01/05 01:29:39;;;;;;;14.07;3.92;;;5.20;99.90;;;;;;5057684;28;20029;-74
2024/01/05 01:32:05;;;;;;;11.88;4.00;;;5.20;99.90;;;;;;5042415;28;20060;-74
2024/01/05 01:34:31;;;;;;;7.70;2.67;;;5.30;99.90;;;;;;5040929;28;20022;-73
2024/01/05 01:36:57;;;;;;;6.35;2.92;;;5.30;99.90;;;;;;5042341;28;20439;-72
2024/01/05 01:39:22;;;;;;;11.15;3.13;;;5.40;99.90;;;;;;5042514;28;20026;-74
2024/01/05 01:41:49;;;;;;;11.68;3.85;;;5.50;99.90;;;;;;5041947;28;20121;-74
2024/01/05 01:44:15;;;;;;;14.48;5.10;;;5.60;99.90;;;;;;5042452;28;20043;-74
2024/01/05 01:46:41;;;;;;;15.32;4.25;;;5.60;99.90;;;;;;5041971;28;20065;-73
2024/01/05 01:49:06;;;;;;;9.65;3.85;;;5.70;99.90;;;;;;5042023;28;20048;-74
2024/01/05 01:51:33;;;;;;;10.55;3.83;;;5.70;99.90;;;;;;5041754;28;20358;-72
2024/01/05 01:53:59;;;;;;;12.55;3.83;;;5.70;99.90;;;;;;5042350;28;20030;-72
2024/01/05 01:56:25;;;;;;;12.52;4.35;;;5.80;99.90;;;;;;5042574;28;20079;-73
2024/01/05 01:58:51;;;;;;;14.13;4.22;;;5.80;99.90;;;;;;5041655;28;20319;-74
2024/01/05 02:01:17;;;;;;;8.95;3.78;;;5.80;99.90;;;;;;5043665;28;20072;-74
2024/01/05 02:03:43;;;;;;;8.45;3.35;;;5.80;99.90;;;;;;5041773;28;20018;-75
2024/01/05 02:06:09;;;;;;;10.95;3.70;;;5.80;99.90;;;;;;5042606;28;20337;-74
2024/01/05 02:08:36;;;;;;;8.73;2.90;;;5.80;99.90;;;;;;5040907;28;20044;-73
2024/01/05 02:11:02;;;;;;;7.60;3.38;;;5.90;99.90;;;;;;5042412;28;20045;-74
2024/01/05 02:13:28;;;;;;;8.57;3.75;;;5.90;99.90;;;;;;5041760;28;20307;-75
2024/01/05 02:15:54;;;;;;;9.82;3.25;;;5.80;99.90;;;;;;5042039;28;20036;-75
2024/01/05 02:18:20;;;;;;;10.85;3.42;;;5.80;99.90;;;;;;5042574;28;20027;-75
2024/01/05 02:20:47;;;;;;;9.48;3.63;;;5.80;99.90;;;;;;5041310;28;20053;-75
2024/01/05 02:23:26;;;;;;;7.65;2.90;;;5.80;99.90;;;;;;5042277;28;20028;-73
2024/01/05 02:25:54;;;;;;;9.60;3.10;;;5.80;99.90;;;;;;5041457;28;20235;-74
2024/01/05 02:28:19;;;;;;;5.85;2.83;;;5.80;99.90;;;;;;5042339;28;20323;-73
2024/01/05 02:30:45;;;;;;;8.45;2.97;;;5.80;99.90;;;;;;5041607;28;20029;-73
2024/01/05 02:33:11;;;;;;;7.57;2.70;;;5.80;99.90;;;;;;5041982;28;20327;-74
2024/01/05 02:35:37;;;;;;;12.63;3.20;;;5.80;99.90;;;;;;5041823;28;20041;-73
2024/01/05 02:38:03;;;;;;;8.98;3.25;;;5.70;99.90;;;;;;5040658;28;20021;-73
2024/01/05 02:40:29;;;;;;;9.13;3.05;;;5.70;99.90;;;;;;5041491;28;20107;-73
2024/01/05 02:42:54;;;;;;;8.32;2.70;;;5.70;99.90;;;;;;5041822;28;20363;-74
2024/01/05 02:45:21;;;;;;;12.00;3.33;;;5.80;99.90;;;;;;5041840;28;20017;-73
2024/01/05 02:47:50;;;;;;;8.32;3.13;;;5.70;99.90;;;;;;5041121;28;20396;-74
2024/01/05 02:50:17;;;;;;;11.00;3.35;;;5.70;99.90;;;;;;5042102;28;20041;-74
2024/01/05 02:52:43;;;;;;;8.70;3.60;;;5.60;99.90;;;;;;5041203;28;20238;-74
2024/01/05 02:55:12;;;;;;;14.57;3.50;;;5.60;99.90;;;;;;5041855;28;20034;-75
2024/01/05 02:57:39;;;;;;;8.90;2.83;;;5.60;99.90;;;;;;5056660;28;20087;-74
2024/01/05 03:00:05;;;;;;;8.55;3.30;;;5.50;99.90;;;;;;5040950;28;20021;-74
2024/01/05 03:02:31;;;;;;;8.75;3.70;;;5.50;99.90;;;;;;5055042;28;20028;-74
2024/01/05 03:04:58;;;;;;;8.18;3.42;;;5.50;99.90;;;;;;5065599;28;20051;-74
2024/01/05 03:07:23;;;;;;;9.85;3.15;;;5.40;99.90;;;;;;5065589;28;20025;-74
2024/01/05 03:09:50;;;;;;;8.88;3.60;;;5.40;99.90;;;;;;5060968;28;20025;-73
2024/01/05 03:12:17;;;;;;;10.55;3.25;;;5.50;99.90;;;;;;5045268;28;20045;-75
2024/01/05 03:14:42;;;;;;;9.02;3.05;;;5.60;99.90;;;;;;5044592;28;20025;-74
2024/01/05 03:17:08;;;;;;;8.57;3.17;;;5.50;99.90;;;;;;5045045;28;20057;-74
2024/01/05 03:19:34;;;;;;;7.00;2.80;;;5.50;99.90;;;;;;5044720;28;20224;-73
2024/01/05 03:22:00;;;;;;;8.80;3.00;;;5.50;99.90;;;;;;5045364;28;20196;-74
2024/01/05 03:24:25;;;;;;;9.30;3.10;;;5.50;99.90;;;;;;5044848;28;20037;-74
2024/01/05 03:26:51;;;;;;;7.80;3.38;;;5.50;99.90;;;;;;5044373;28;20161;-74
2024/01/05 03:29:17;;;;;;;7.18;2.90;;;5.40;99.90;;;;;;5045233;28;20063;-74
2024/01/05 03:31:46;;;;;;;8.07;3.35;;;5.40;99.90;;;;;;5044087;28;20209;-74
2024/01/05 03:34:13;;;;;;;8.32;2.85;;;5.40;99.90;;;;;;5044653;28;20331;-74
2024/01/05 03:36:39;;;;;;;12.02;3.47;;;5.50;99.90;;;;;;5044237;28;20017;-74
2024/01/05 03:39:07;;;;;;;8.07;2.65;;;5.60;99.90;;;;;;5044744;28;20088;-74
2024/01/05 03:41:33;;;;;;;8.32;2.80;;;5.60;99.90;;;;;;5044368;28;20067;-74
2024/01/05 03:43:59;;;;;;;6.38;2.83;;;5.70;99.90;;;;;;5044247;28;20102;-73
2024/01/05 03:46:24;;;;;;;7.32;2.92;;;5.70;99.90;;;;;;5044437;28;20049;-73
2024/01/05 03:48:50;;;;;;;7.32;2.83;;;5.70;99.90;;;;;;5043943;28;20029;-74
2024/01/05 03:51:16;;;;;;;7.13;2.58;;;5.80;99.90;;;;;;5044444;28;20030;-73
2024/01/05 03:53:42;;;;;;;9.05;3.00;;;5.70;99.90;;;;;;5044201;28;20033;-74
2024/01/05 03:56:08;;;;;;;7.78;2.67;;;5.70;99.90;;;;;;5044732;28;20021;-74
2024/01/05 03:58:34;;;;;;;8.23;2.65;;;5.80;99.90;;;;;;5043917;28;20021;-74
2024/01/05 04:01:01;;;;;;;6.88;2.53;;;5.70;99.90;;;;;;5044601;28;20322;-73
2024/01/05 04:03:27;;;;;;;7.93;2.75;;;5.70;99.90;;;;;;5063604;28;20060;-75
2024/01/05 04:05:53;;;;;;;4.75;0.93;;;5.90;99.90;;;;;;5064356;28;20017;-74
2024/01/05 04:08:18;;;;;;;4.57;0.90;;;6.20;99.90;;;;;;5064089;28;20056;-74
2024/01/05 04:10:44;;;;;;;3.50;0.70;;;6.50;99.90;;;;;;5063634;28;20041;-73
2024/01/05 04:13:10;;;;;;;2.88;0.60;;;6.70;99.90;;;;;;5064182;28;20071;-75
2024/01/05 04:15:36;;;;;;;6.30;0.90;;;7.00;99.90;;;;;;5063504;28;20040;-73
2024/01/05 04:18:02;;;;;;;5.03;0.82;;;7.20;99.90;;;;;;5046727;28;20088;-73
2024/01/05 04:20:28;;;;;;;4.38;0.82;;;7.50;99.90;;;;;;5043516;28;20029;-75
2024/01/05 04:22:54;;;;;;;4.70;0.73;;;7.70;99.90;;;;;;5044225;28;20124;-74
2024/01/05 04:25:19;;;;;;;3.10;0.77;;;7.90;99.20;;;;;;5042597;28;20034;-74
2024/01/05 04:27:46;;;;;;;5.10;0.60;;;8.00;98.40;;;;;;5043478;28;20029;-73
2024/01/05 04:30:12;;;;;;;2.88;0.93;;;8.20;98.00;;;;;;5043625;28;20022;-75
2024/01/05 04:32:38;;;;;;;1.63;0.50;;;8.20;97.60;;;;;;5042963;28;20070;-74
2024/01/05 04:35:04;;;;;;;3.35;0.70;;;8.30;97.30;;;;;;5044215;28;20121;-74
2024/01/05 04:37:29;;;;;;;3.20;0.70;;;8.30;97.10;;;;;;5042890;28;20040;-75
2024/01/05 04:39:55;;;;;;;3.67;0.80;;;8.30;96.80;;;;;;5043899;28;20303;-75
2024/01/05 04:42:22;;;;;;;2.78;0.50;;;8.40;96.60;;;;;;5043776;28;20037;-73
2024/01/05 04:44:49;;;;;;;4.47;1.10;;;8.40;96.50;;;;;;5043068;28;20048;-72
2024/01/05 04:47:15;;;;;;;3.67;0.50;;;8.40;96.30;;;;;;5042405;28;20388;-74
2024/01/05 04:49:41;;;;;;;5.95;0.80;;;8.40;96.30;;;;;;5042437;28;20038;-74
2024/01/05 04:52:07;;;;;;;4.25;0.73;;;8.40;96.30;;;;;;5043384;28;20377;-72
2024/01/05 04:54:32;;;;;;;2.58;0.63;;;8.40;96.20;;;;;;5042519;28;20033;-74
2024/01/05 04:56:58;;;;;;;3.10;0.75;;;8.40;96.30;;;;;;5043352;28;20266;-75
2024/01/05 04:59:24;;;;;;;2.53;0.50;;;8.30;96.30;;;;;;5042966;28;20220;-77
2024/01/05 05:01:50;;;;;;;3.67;0.82;;;8.30;96.20;;;;;;5048408;28;20037;-73
2024/01/05 05:04:17;;;;;;;4.60;0.70;;;8.30;95.90;;;;;;5062189;28;20302;-73
2024/01/05 05:06:47;;;;;;;3.55;0.63;;;8.30;96.00;;;;;;5057793;28;20056;-73
2024/01/05 05:09:12;;;;;;;4.55;0.70;;;8.30;96.00;;;;;;5043113;28;20144;-74
2024/01/05 05:11:39;;;;;;;2.45;0.50;;;8.30;96.10;;;;;;5042170;28;20033;-73
2024/01/05 05:14:05;;;;;;;2.50;0.60;;;8.30;96.10;;;;;;5042616;28;20382;-73
2024/01/05 05:16:32;;;;;;;3.90;0.65;;;8.20;96.10;;;;;;5040988;28;20045;-74
2024/01/05 05:18:57;;;;;;;5.65;0.85;;;8.20;96.10;;;;;;5042723;28;20214;-74
2024/01/05 05:21:25;;;;;;;3.03;0.50;;;8.20;96.00;;;;;;5041804;28;20113;-74
2024/01/05 05:23:50;;;;;;;5.05;0.65;;;8.20;95.80;;;;;;5041704;28;20033;-74
2024/01/05 05:26:16;;;;;;;4.43;0.77;;;8.30;95.70;;;;;;5042387;28;20021;-73
2024/01/05 05:28:42;;;;;;;4.28;1.05;;;8.30;95.80;;;;;;5040921;28;20089;-74
2024/01/05 05:31:08;;;;;;;3.53;0.77;;;8.20;95.70;;;;;;5042193;28;20029;-75
2024/01/05 05:33:33;;;;;;;4.20;0.50;;;8.20;95.80;;;;;;5042184;28;20109;-74
2024/01/05 05:35:59;;;;;;;2.05;0.57;;;8.20;95.70;;;;;;5042426;28;20025;-73
2024/01/05 05:38:25;;;;;;;3.92;0.50;;;8.30;95.60;;;;;;5042567;28;20040;-74
2024/01/05 05:40:50;;;;;;;3.42;0.68;;;8.20;95.70;;;;;;5041513;28;20215;-73
2024/01/05 05:43:16;;;;;;;3.30;0.60;;;8.20;95.70;;;;;;5042625;28;20026;-73
2024/01/05 05:45:42;;;;;;;5.68;0.70;;;8.20;95.70;;;;;;5041667;28;20418;-73
2024/01/05 05:48:07;;;;;;;2.70;0.80;;;8.30;95.60;;;;;;5042671;28;20266;-73
2024/01/05 05:50:33;;;;;;;5.18;0.68;;;8.30;95.40;;;;;;5041685;28;20101;-73
2024/01/05 05:52:58;;;;;;;2.88;0.60;;;8.30;95.40;;;;;;5042627;28;20208;-73
2024/01/05 05:55:24;;;;;;;3.88;0.65;;;8.40;95.30;;;;;;5042575;28;20021;-73
2024/01/05 05:57:50;;;;;;;3.10;0.57;;;8.40;95.30;;;;;;5042263;28;20044;-72
2024/01/05 06:00:16;;;;;;;2.85;0.95;;;8.40;95.20;;;;;;5042418;28;20036;-75
2024/01/05 06:02:41;;;;;;;2.47;0.60;;;8.40;95.20;;;;;;5054675;28;20027;-73
2024/01/05 06:05:07;;;;;;;2.25;0.55;;;8.40;95.30;;;;;;5062658;28;20049;-72
2024/01/05 06:07:33;;;;;;;3.97;0.77;;;8.40;95.20;;;;;;5064895;28;20033;-74
2024/01/05 06:09:59;;;;;;;2.70;0.68;;;8.40;95.20;;;;;;5077964;28;20028;-73
2024/01/05 06:12:24;;;;;;;2.58;0.60;;;8.40;95.10;;;;;;5062202;28;20041;-73
2024/01/05 06:14:50;;;;;;;2.92;0.68;;;8.50;95.00;;;;;;5044202;28;20314;-73
2024/01/05 06:17:17;;;;;;;3.38;0.60;;;8.50;95.10;;;;;;5041986;28;20292;-74
2024/01/05 06:19:43;;;;;;;5.10;0.60;;;8.40;95.10;;;;;;5041501;28;20044;-73
2024/01/05 06:22:09;;;;;;;4.05;0.98;;;8.40;95.50;;;;;;5042107;28;20052;-74
2024/01/05 06:24:34;;;;;;;2.75;0.60;;;8.40;95.40;;;;;;5041655;28;20025;-75
2024/01/05 06:27:00;;;;;;;2.45;0.60;;;8.40;95.30;;;;;;5042062;28;20049;-73
2024/01/05 06:29:26;;;;;;;4.13;0.70;;;8.40;95.00;;;;;;5042203;28;20033;-74
2024/01/05 06:31:51;;;;;;;3.83;0.75;;;8.40;95.20;;;;;;5041322;28;20076;-72
2024/01/05 06:34:17;;;;;;;2.95;0.77;;;8.40;95.30;;;;;;5042182;28;20308;-73
2024/01/05 06:36:43;;;;;;;3.35;0.70;;;8.30;95.40;;;;;;5042337;28;20037;-73
2024/01/05 06:39:09;;;;;;;4.35;0.68;;;8.30;95.50;;;;;;5046083;28;20022;-74
2024/01/05 06:41:37;;;;;;;2.72;0.70;;;8.20;95.70;;;;;;5045469;28;20128;-73
2024/01/05 06:44:04;;;;;;;3.55;0.80;;;8.10;95.90;;;;;;5046017;28;20041;-73
2024/01/05 06:46:30;;;;;;;4.53;0.80;;;8.10;96.00;;;;;;5045311;28;20339;-73
2024/01/05 06:48:57;;;;;;;3.70;0.60;;;8.00;96.30;;;;;;5045958;28;20037;-74
2024/01/05 06:51:29;;;;;;;3.63;1.17;;;7.80;96.70;;;;;;5045476;28;20057;-72
2024/01/05 06:53:58;;;;;;;2.45;0.70;;;7.80;96.90;;;;;;5046036;28;20307;-74
2024/01/05 06:56:24;;;;;;;2.50;0.60;;;7.70;96.70;;;;;;5045703;28;20029;-73
2024/01/05 06:58:50;;;;;;;2.30;0.70;;;7.70;96.80;;;;;;5044809;28;20021;-75
2024/01/05 07:01:17;;;;;;;4.22;0.70;;;7.60;96.90;;;;;;5046425;28;20036;-73
2024/01/05 07:03:43;;;;;;;3.70;0.80;;;7.60;97.20;;;;;;5059883;28;20021;-75
2024/01/05 07:06:11;;;;;;;2.88;0.60;;;7.50;97.30;;;;;;5045161;28;20334;-72
2024/01/05 07:08:37;;;;;;;2.50;0.73;;;7.50;97.60;;;;;;5045062;28;20017;-73
2024/01/05 07:11:02;;;;;;;3.10;0.70;;;7.50;97.50;;;;;;5044985;28;20087;-73
2024/01/05 07:13:28;;;;;;;3.45;0.47;;;7.50;97.60;;;;;;5044716;28;20034;-73
2024/01/05 07:15:55;;;;;;;3.28;0.90;;;7.50;97.50;;;;;;5044951;28;20017;-72
2024/01/05 07:18:20;;;;;;;4.70;0.90;;;7.40;98.00;;;;;;5045001;28;20193;-73
2024/01/05 07:20:46;;;;;;;3.90;1.30;;;7.20;98.60;;;;;;5044550;28;20032;-74
2024/01/05 07:23:12;;;;;;;8.20;1.88;;;7.10;99.10;;;;;;5045368;28;20021;-73
2024/01/05 07:25:37;;;;;;;4.72;1.80;;;7.00;99.70;;;;;;5043437;28;20057;-73
2024/01/05 07:28:04;;;;;;;5.53;1.92;;;6.90;99.90;;;;;;5044995;28;20033;-74
2024/01/05 07:30:29;;;;;;;5.57;2.00;;;6.80;99.90;;;;;;5044072;28;20025;-73
2024/01/05 07:32:55;;;;;;;6.63;2.20;;;6.60;99.90;;;;;;5060492;28;20033;-73
2024/01/05 07:35:21;;;;;;;7.40;2.28;;;6.60;99.90;;;;;;5044902;28;20103;-73
2024/01/05 07:37:46;;;;;;;9.45;2.72;;;6.50;99.90;;;;;;5044730;28;20330;-73
2024/01/05 07:40:12;;;;;;;8.93;2.97;;;6.50;99.90;;;;;;5043773;28;20029;-74
2024/01/05 07:42:38;;;;;;;7.70;2.40;;;6.40;99.90;;;;;;5044051;28;20180;-73
2024/01/05 07:45:05;;;;;;;9.07;2.70;;;6.40;99.90;;;;;;5044502;28;20029;-73
2024/01/05 07:47:31;;;;;;;9.15;2.92;;;6.40;99.90;;;;;;5043536;28;20045;-72
2024/01/05 07:49:57;;;;;;;6.90;2.88;;;6.30;99.90;;;;;;5044716;28;20379;-74
2024/01/05 07:52:23;;;;;;;11.95;3.20;;;6.30;99.90;;;;;;5043609;28;20033;-73
2024/01/05 07:54:48;;;;;;;8.82;3.22;;;6.30;99.90;;;;;;5043882;28;20036;-72
2024/01/05 07:57:14;;;;;;;8.07;2.97;;;6.20;99.90;;;;;;5043563;28;20044;-74
2024/01/05 07:59:40;;;;;;;7.57;2.90;;;6.20;99.90;;;;;;5043686;28;20040;-74
2024/01/05 08:02:05;;;;;;;6.78;2.50;;;6.20;99.90;;;;;;5044038;28;20254;-73
2024/01/05 08:04:31;;;;;;;6.53;2.40;;;6.20;99.90;;;;;;5043779;28;20033;-74
2024/01/05 08:06:57;;;;;;;6.10;2.58;;;6.20;99.90;;;;;;5043561;28;20041;-73
2024/01/05 08:09:22;;;;;;;5.55;2.42;;;6.20;99.90;;;;;;5044675;28;20021;-73
2024/01/05 08:11:48;;;;;;;7.05;2.30;;;6.30;99.90;;;;;;5043659;28;20320;-73
2024/01/05 08:14:14;;;;;;;7.60;2.67;;;6.30;99.90;;;;;;5043265;28;20041;-74
2024/01/05 08:16:39;;;;;;;9.25;2.35;;;6.40;99.90;;;;;;5043641;28;20034;-74
2024/01/05 08:19:05;;;;;;;6.55;2.38;;;6.40;99.90;;;;;;5043661;28;20335;-73
2024/01/05 08:21:31;;;;;;;6.38;2.10;;;6.50;99.90;;;;;;5043647;28;20108;-73
2024/01/05 08:23:56;;;;;;;6.35;2.17;;;6.50;99.90;;;;;;5044168;28;20096;-72
2024/01/05 08:26:22;;;;;;;4.57;1.80;;;6.40;99.90;;;;;;5044027;28;20363;-72
2024/01/05 08:28:48;;;;;;;5.78;2.28;;;6.50;99.90;;;;;;5043214;28;20096;-72
2024/01/05 08:31:13;;;;;;;6.95;2.33;;;6.60;99.90;;;;;;5043814;28;20065;-73
2024/01/05 08:33:39;;;;;;;9.07;2.33;;;6.70;99.90;;;;;;5043042;28;20025;-72
2024/01/05 08:36:05;;;;;;;6.10;2.58;;;6.80;99.90;;;;;;5043280;28;20022;-73
2024/01/05 08:38:31;;;;;;;9.35;2.55;;;6.80;99.90;;;;;;5043005;28;20039;-72
2024/01/05 08:40:56;;;;;;;7.72;2.45;;;6.90;99.90;;;;;;5043536;28;20093;-74
2024/01/05 08:43:22;;;;;;;6.88;2.40;;;7.00;99.90;;;;;;5043703;28;20021;-74
2024/01/05 08:45:48;;;;;;;7.57;2.22;;;7.10;99.90;;;;;;5042536;28;20048;-75
2024/01/05 08:48:15;;;;;;;7.00;2.25;;;7.20;99.90;;;;;;5043493;28;20310;-74
2024/01/05 08:50:41;;;;;;;5.80;2.13;;;7.20;99.90;;;;;;5042926;28;20320;-76
2024/01/05 08:53:08;;;;;;;7.78;2.30;;;7.20;99.90;;;;;;5043620;28;20026;-74
2024/01/05 08:55:36;;;;;;;6.63;2.72;;;7.20;99.90;;;;;;5042814;28;20045;-73
2024/01/05 08:58:05;;;;;;;7.63;2.70;;;7.20;99.90;;;;;;5043564;28;20030;-75
2024/01/05 09:00:31;;;;;;;7.68;2.42;;;7.10;99.90;;;;;;5041929;28;20088;-76
2024/01/05 09:02:56;;;;;;;6.10;2.20;;;7.10;99.90;;;;;;5058317;28;20370;-75
2024/01/05 09:05:22;;;;;;;6.50;2.17;;;7.00;99.90;;;;;;5063058;28;20029;-74
2024/01/05 09:07:48;;;;;;;6.10;2.80;;;7.00;99.90;;;;;;5062516;28;20338;-76
2024/01/05 09:10:14;;;;;;;9.30;2.60;;;6.90;99.90;;;;;;5043292;28;20053;-75
2024/01/05 09:12:40;;;;;;;5.78;2.45;;;6.90;99.90;;;;;;5042561;28;20300;-77
2024/01/05 09:15:07;;;;;;;5.18;1.95;;;6.80;99.90;;;;;;5042870;28;20204;-76
2024/01/05 09:17:33;;;;;;;6.77;2.10;;;6.80;99.90;;;;;;5042573;28;20037;-76
2024/01/05 09:19:59;;;;;;;6.25;1.98;;;6.80;99.90;;;;;;5042940;28;20311;-76
2024/01/05 09:22:25;;;;;;;9.18;2.40;;;6.70;99.90;;;;;;5041872;28;20243;-76
2024/01/05 09:24:51;;;;;;;7.20;2.33;;;6.70;99.90;;;;;;5051120;28;20074;-75
2024/01/05 09:27:17;;;;;;;12.60;4.65;;;6.80;99.90;;;;;;5062933;28;20078;-75
2024/01/05 09:29:42;;;;;;;12.95;4.35;;;6.70;99.90;;;;;;5062333;28;20365;-76
2024/01/05 09:32:08;;;;;;;11.02;4.38;;;6.80;99.90;;;;;;5061554;28;20037;-76
2024/01/05 09:34:34;;;;;;;5.07;2.03;;;6.80;99.90;;;;;;5062265;28;20028;-75
2024/01/05 09:36:59;;;;;;;6.40;2.00;;;6.90;99.90;;;;;;5059286;28;20025;-75
2024/01/05 09:39:25;;;;;;;5.63;1.73;;;7.00;99.90;;;;;;5045377;28;20029;-75
2024/01/05 09:41:50;;;;;;;5.75;1.73;;;7.10;99.90;;;;;;5053492;28;20088;-74
2024/01/05 09:44:16;;;;;;;5.95;1.70;;;7.20;99.90;;;;;;5041537;28;20033;-74
2024/01/05 09:46:44;;;;;;;8.43;2.08;;;7.30;99.90;;;;;;5041991;28;20041;-74
2024/01/05 09:49:13;;;;;;;5.55;1.75;;;7.40;99.90;;;;;;5042889;28;20044;-76
2024/01/05 09:51:39;;;;;;;8.38;2.75;;;7.50;99.90;;;;;;5040561;28;20107;-73
2024/01/05 09:54:05;;;;;;;6.15;2.08;;;7.60;99.90;;;;;;5042328;28;20033;-74
2024/01/05 09:56:32;;;;;;;10.23;2.50;;;7.80;99.90;;;;;;5040871;28;20017;-75
2024/01/05 09:58:59;;;;;;;7.22;2.60;;;7.90;99.90;;;;;;5049872;28;20070;-74
2024/01/05 10:01:28;;;;;;;10.63;3.58;;;8.10;99.90;;;;;;5059789;28;20029;-73
2024/01/05 10:03:58;;;;;;;9.60;3.25;;;8.20;99.90;;;;;;5041936;28;20264;-75
2024/01/05 10:06:25;;;;;;;5.85;2.63;;;8.20;99.90;;;;;;5042435;28;20331;-75
2024/01/05 10:08:55;;;;;;;8.50;3.40;;;8.20;99.90;;;;;;5041820;28;20030;-72
2024/01/05 10:11:34;;;;;;;7.10;2.70;;;8.30;99.90;;;;;;5064297;28;20025;-73
2024/01/05 10:14:07;;;;;;;8.80;3.28;;;8.30;99.90;;;;;;5066238;28;20044;-72
2024/01/05 10:16:39;;;;;;;11.02;3.38;;;8.30;99.60;;;;;;5052829;28;20033;-74
2024/01/05 10:19:16;;;;;;;10.27;3.70;;;8.30;99.80;;;;;;5046262;28;20045;-73
2024/01/05 10:21:46;;;;;;;11.40;3.42;;;8.30;99.90;;;;;;5044735;28;20248;-74
2024/01/05 10:24:27;;;;;;;8.93;3.58;;;8.30;99.90;;;;;;5046263;28;20067;-72
2024/01/05 10:27:10;;;;;;;7.43;3.30;;;8.30;99.90;;;;;;5045966;28;20209;-73
2024/01/05 10:29:38;;;;;;;11.52;3.63;;;8.30;99.90;;;;;;5045445;28;20060;-73
2024/01/05 10:32:20;;;;;;;9.45;4.10;;;8.40;99.90;;;;;;5045912;28;20037;-71
2024/01/05 10:34:48;;;;;;;12.75;3.90;;;8.50;99.80;;;;;;5045776;28;20381;-71
2024/01/05 10:37:15;;;;;;;8.85;3.00;;;8.60;99.90;;;;;;5046158;28;20037;-73
2024/01/05 10:39:46;;;;;;;7.45;2.97;;;8.70;99.70;;;;;;5045326;28;20025;-73
2024/01/05 10:42:22;;;;;;;9.27;2.75;;;8.80;99.30;;;;;;5045784;28;20041;-73
2024/01/05 10:44:51;;;;;;;9.00;3.00;;;8.90;99.00;;;;;;5059583;28;20052;-73
2024/01/05 10:47:22;;;;;;;8.38;3.03;;;9.10;99.10;;;;;;5060727;28;20053;-72
2024/01/05 10:49:50;;;;;;;7.40;2.88;;;9.20;98.70;;;;;;5045399;28;20045;-73
2024/01/05 10:52:18;;;;;;;9.30;3.13;;;9.30;98.70;;;;;;5045899;28;20087;-73
2024/01/05 10:54:48;;;;;;;7.72;2.83;;;9.40;98.50;;;;;;5045181;28;20037;-74
2024/01/05 10:57:16;;;;;;;9.10;3.05;;;9.50;98.10;;;;;;5046180;28;20052;-73
2024/01/05 10:59:49;;;;;;;6.68;3.50;;;9.50;98.20;;;;;;5044198;28;20048;-72
2024/01/05 11:02:20;;;;;;;8.05;3.72;;;9.50;98.00;;;;;;5054908;28;20032;-72
2024/01/05 11:04:51;;;;;;;9.93;3.80;;;9.50;97.90;;;;;;5046262;28;20247;-72
2024/01/05 11:07:18;;;;;;;8.32;3.72;;;9.40;98.00;;;;;;5045699;28;20040;-73
2024/01/05 11:10:17;;;;;;;9.68;3.88;;;9.40;98.20;;;;;;5044992;28;20089;-72
2024/01/05 11:13:07;;;;;;;10.52;3.38;;;9.30;98.30;;;;;;5044834;28;20048;-74
2024/01/05 11:15:43;;;;;;;5.85;3.00;;;9.30;98.30;;;;;;5044624;28;20334;-72
2024/01/05 11:18:40;;;;;;;7.72;2.70;;;9.30;98.40;;;;;;5044232;28;20037;-74
2024/01/05 11:21:13;;;;;;;8.23;2.95;;;9.20;98.40;;;;;;5045286;28;20032;-73
2024/01/05 11:23:41;;;;;;;10.10;2.80;;;9.20;98.30;;;;;;5043764;28;20037;-73
2024/01/05 11:26:25;;;;;;;8.02;3.13;;;9.30;98.30;;;;;;5045357;28;20038;-74
2024/01/05 11:28:50;;;;;;;11.55;3.05;;;9.40;98.40;;;;;;5044802;28;20311;-75
2024/01/05 11:31:45;;;;;;;8.02;2.92;;;9.50;98.50;;;;;;5045055;28;20100;-74
2024/01/05 11:34:30;;;;;;;6.18;2.78;;;9.50;98.10;;;;;;5044674;28;20104;-74
2024/01/05 11:36:57;;;;;;;8.68;2.50;;;9.60;98.20;;;;;;5044819;28;20052;-73
2024/01/05 11:39:48;;;;;;;12.27;2.60;;;9.60;97.90;;;;;;5049660;28;20020;-73
2024/01/05 11:42:33;;;;;;;7.20;2.70;;;9.80;97.80;;;;;;5064543;28;20043;-73
2024/01/05 11:45:08;;;;;;;7.60;2.50;;;9.80;97.70;;;;;;5048959;28;20037;-74
2024/01/05 11:47:42;;;;;;;6.05;2.78;;;9.90;97.70;;;;;;5044352;28;20312;-72
2024/01/05 11:50:27;;;;;;;6.28;2.80;;;9.90;97.70;;;;;;5044688;28;20025;-70
2024/01/05 11:53:08;;;;;;;9.82;2.80;;;9.90;97.50;;;;;;5044513;28;20045;-71
2024/01/05 11:55:39;;;;;;;7.80;2.85;;;9.90;97.60;;;;;;5043879;28;20034;-78
2024/01/05 11:58:10;;;;;;;8.93;2.92;;;9.80;97.40;;;;;;5044557;28;20033;-73
2024/01/05 12:00:42;;;;;;;7.93;2.65;;;9.80;97.70;;;;;;5043788;28;20216;-81
2024/01/05 12:03:08;;;;;;;6.85;2.80;;;9.80;97.60;;;;;;5044425;28;20032;-76
2024/01/05 12:05:38;;;;;;;6.90;3.10;;;9.80;97.70;;;;;;5026084;28;20025;-76
2024/01/05 12:08:11;;;;;;;11.82;3.00;;;9.90;97.80;;;;;;5044222;28;20033;-73
2024/01/05 12:10:39;;;;;;;7.40;2.70;;;9.90;97.80;;;;;;5043563;28;20056;-74
2024/01/05 12:13:05;;;;;;;9.68;3.05;;;9.90;97.90;;;;;;5043880;28;20041;-72
2024/01/05 12:15:32;;;;;;;7.88;3.00;;;9.90;98.10;;;;;;5043668;28;20046;-75
2024/01/05 12:18:11;;;;;;;7.38;3.13;;;9.90;98.10;;;;;;5043978;28;20095;-74
2024/01/05 12:20:37;;;;;;;7.35;3.15;;;10.00;98.10;;;;;;5043742;28;20021;-74
2024/01/05 12:23:03;;;;;;;10.45;3.30;;;10.00;98.20;;;;;;5044286;28;20324;-75
2024/01/05 12:25:30;;;;;;;7.95;3.30;;;10.00;98.40;;;;;;5058841;28;20315;-75
2024/01/05 12:28:03;;;;;;;7.00;3.40;;;10.00;98.40;;;;;;5044171;28;20029;-75
2024/01/05 12:30:29;;;;;;;8.18;4.30;;;9.90;98.40;;;;;;5043610;28;20034;-75
2024/01/05 12:32:55;;;;;;;10.30;3.45;;;9.80;98.70;;;;;;5044053;28;20029;-73
2024/01/05 12:35:21;;;;;;;7.63;3.25;;;9.90;98.80;;;;;;5042296;28;20331;-73
2024/01/05 12:37:54;;;;;;;9.13;3.50;;;9.90;98.80;;;;;;5043362;28;20048;-73
2024/01/05 12:40:25;;;;;;;9.68;3.35;;;9.90;98.70;;;;;;5045265;28;20017;-74
2024/01/05 12:42:52;;;;;;;7.75;3.53;;;9.90;98.80;;;;;;5052290;28;20088;-74
2024/01/05 12:45:22;;;;;;;7.03;3.28;;;9.90;98.60;;;;;;5050216;28;20113;-76
2024/01/05 12:47:48;;;;;;;10.45;3.90;;;9.90;98.60;;;;;;5043187;28;20521;-77
2024/01/05 12:50:28;;;;;;;7.28;3.17;;;9.90;98.60;;;;;;5059437;28;20035;-75
2024/01/05 12:52:55;;;;;;;6.43;3.00;;;10.00;98.30;;;;;;5063633;28;20108;-73
2024/01/05 12:55:31;;;;;;;9.65;4.30;;;10.00;98.30;;;;;;5062452;28;20219;-74
2024/01/05 12:58:03;;;;;;;8.63;3.22;;;10.00;98.70;;;;;;5054281;28;20220;-73